createdAt,value
2023-03-11T00:00:55.186Z,98689.16
2023-03-11T00:03:22.743Z,98687.91
2023-03-11T00:05:51.156Z,98700.03
2023-03-11T00:08:21.865Z,98693.47
2023-03-11T00:10:54.656Z,98710.56
2023-03-11T00:13:22.345Z,98709.53
2023-03-11T00:15:52.535Z,98705.59
2023-03-11T00:18:19.541Z,98737.09
2023-03-11T00:20:47.871Z,98735.66
2023-03-11T00:23:16.023Z,98746.56
2023-03-11T00:25:45.192Z,98746.91
2023-03-11T00:28:16.059Z,98736.38
2023-03-11T00:30:45.413Z,98772.69
2023-03-11T00:33:13.655Z,98761.41
2023-03-11T00:35:42.251Z,98770.59
2023-03-11T00:38:14.366Z,98776.94
2023-03-11T00:40:41.888Z,98785.53
2023-03-11T00:43:08.865Z,98799.66
2023-03-11T00:45:38.008Z,98817.09
2023-03-11T00:48:06.236Z,98788.16
2023-03-11T00:50:36.450Z,98806.47
2023-03-11T00:53:05.469Z,98799.03
2023-03-11T00:55:35.136Z,98799.44
2023-03-11T00:58:07.174Z,98816.44
2023-03-11T01:00:45.438Z,98793.97
2023-03-11T01:03:12.552Z,98798.44
2023-03-11T01:05:39.603Z,98815.50
2023-03-11T01:08:06.557Z,98796.91
2023-03-11T01:10:35.408Z,98809.94
2023-03-11T01:13:02.957Z,98789.66
2023-03-11T01:15:32.853Z,98797.97
2023-03-11T01:18:01.466Z,98788.25
2023-03-11T01:20:28.518Z,98797.94
2023-03-11T01:22:55.578Z,98808.31
2023-03-11T01:25:24.465Z,98792.63
2023-03-11T01:27:51.556Z,98812.50
2023-03-11T01:30:20.252Z,98796.44
2023-03-11T01:32:47.693Z,98791.84
2023-03-11T01:35:19.751Z,98815.66
2023-03-11T01:37:47.110Z,98815.47
2023-03-11T01:40:21.406Z,98830.47
2023-03-11T01:42:48.631Z,98823.47
2023-03-11T01:45:41.721Z,98828.16
2023-03-11T01:48:11.186Z,98831.94
2023-03-11T01:50:44.929Z,98824.13
2023-03-11T01:53:15.398Z,98815.84
2023-03-11T01:55:44.051Z,98810.34
2023-03-11T01:58:17.420Z,98813.47
2023-03-11T02:00:45.637Z,98815.28
2023-03-11T02:03:23.321Z,98815.13
2023-03-11T02:05:55.964Z,98820.94
2023-03-11T02:08:23.532Z,98816.22
2023-03-11T02:10:53.751Z,98832.22
2023-03-11T02:13:21.227Z,98832.44
2023-03-11T02:15:48.378Z,98835.47
2023-03-11T02:18:18.128Z,98837.50
2023-03-11T02:20:54.469Z,98849.56
2023-03-11T02:23:28.709Z,98842.00
2023-03-11T02:26:07.410Z,98857.06
2023-03-11T02:28:38.740Z,98858.72
2023-03-11T02:31:05.732Z,98836.84
2023-03-11T02:33:37.136Z,98860.84
2023-03-11T02:36:05.399Z,98859.56
2023-03-11T02:38:32.260Z,98844.94
2023-03-11T02:41:02.027Z,98839.22
2023-03-11T02:43:40.633Z,98833.00
2023-03-11T02:46:11.392Z,98838.31
2023-03-11T02:48:39.314Z,98847.16
2023-03-11T02:51:06.670Z,98840.50
2023-03-11T02:53:42.478Z,98845.41
2023-03-11T02:56:09.338Z,98851.34
2023-03-11T02:58:37.960Z,98851.28
2023-03-11T03:01:05.159Z,98850.63
2023-03-11T03:03:32.103Z,98865.03
2023-03-11T03:05:59.241Z,98865.22
2023-03-11T03:08:26.786Z,98864.06
2023-03-11T03:10:53.944Z,98874.34
2023-03-11T03:13:20.864Z,98874.59
2023-03-11T03:15:49.438Z,98877.09
2023-03-11T03:18:16.203Z,98884.38
2023-03-11T03:20:43.746Z,98893.66
2023-03-11T03:23:10.652Z,98892.94
2023-03-11T03:25:37.540Z,98897.34
2023-03-11T03:28:07.607Z,98895.13
2023-03-11T03:30:38.851Z,98885.50
2023-03-11T03:33:07.396Z,98889.00
2023-03-11T03:35:34.551Z,98892.03
2023-03-11T03:38:08.850Z,98888.88
2023-03-11T03:40:36.135Z,98892.22
2023-03-11T03:43:05.206Z,98893.56
2023-03-11T03:45:33.273Z,98898.91
2023-03-11T03:48:00.704Z,98901.75
2023-03-11T03:50:32.473Z,98900.94
2023-03-11T03:52:59.459Z,98910.75
2023-03-11T03:55:27.047Z,98912.50
2023-03-11T03:57:54.259Z,98907.00
2023-03-11T04:00:24.875Z,98909.25
2023-03-11T04:02:57.706Z,98907.84
2023-03-11T04:05:34.036Z,98909.91
2023-03-11T04:08:04.049Z,98918.88
2023-03-11T04:10:32.258Z,98917.06
2023-03-11T04:12:59.185Z,98928.38
2023-03-11T04:15:26.525Z,98925.72
2023-03-11T04:17:53.492Z,98929.19
2023-03-11T04:20:20.459Z,98931.22
2023-03-11T04:22:51.294Z,98934.97
2023-03-11T04:25:19.757Z,98925.34
2023-03-11T04:27:47.046Z,98933.34
2023-03-11T04:30:14.466Z,98927.00
2023-03-11T04:32:43.758Z,98926.34
2023-03-11T04:35:11.205Z,98930.84
2023-03-11T04:37:38.427Z,98932.69
2023-03-11T04:40:09.621Z,98935.34
2023-03-11T04:42:36.642Z,98932.03
2023-03-11T04:45:04.072Z,98935.78
2023-03-11T04:47:31.655Z,98943.13
2023-03-11T04:49:58.856Z,98945.97
2023-03-11T04:52:25.994Z,98941.19
2023-03-11T04:54:53.319Z,98936.22
2023-03-11T04:57:21.455Z,98926.97
2023-03-11T04:59:48.374Z,98926.31
2023-03-11T05:02:15.624Z,98925.03
2023-03-11T05:04:50.841Z,98926.94
2023-03-11T05:07:18.203Z,98923.78
2023-03-11T05:09:45.872Z,98933.66
2023-03-11T05:12:13.167Z,98936.81
2023-03-11T05:14:43.422Z,98935.31
2023-03-11T05:17:10.779Z,98945.34
2023-03-11T05:19:37.955Z,98951.28
2023-03-11T05:22:11.906Z,98950.66
2023-03-11T05:24:38.985Z,98944.81
2023-03-11T05:27:06.223Z,98956.25
2023-03-11T05:29:35.539Z,98957.09
2023-03-11T05:32:04.194Z,98950.75
2023-03-11T05:34:31.719Z,98959.41
2023-03-11T05:37:00.909Z,98957.75
2023-03-11T05:39:29.522Z,98967.94
2023-03-11T05:41:56.863Z,98969.91
2023-03-11T05:44:24.536Z,98965.25
2023-03-11T05:46:52.230Z,98959.94
2023-03-11T05:49:20.536Z,98968.41
2023-03-11T05:51:49.220Z,98978.41
2023-03-11T05:54:16.807Z,98975.72
2023-03-11T05:56:47.756Z,98981.38
2023-03-11T05:59:17.151Z,98982.50
2023-03-11T06:01:47.249Z,98989.13
2023-03-11T06:04:14.735Z,98984.63
2023-03-11T06:06:43.407Z,98988.75
2023-03-11T06:09:13.671Z,98985.75
2023-03-11T06:11:42.604Z,98995.69
2023-03-11T06:14:12.352Z,98996.19
2023-03-11T06:16:39.969Z,99002.28
2023-03-11T06:19:09.318Z,99002.44
2023-03-11T06:21:41.192Z,99002.09
2023-03-11T06:24:09.751Z,98998.53
2023-03-11T06:26:37.302Z,99003.25
2023-03-11T06:29:04.674Z,98996.03
2023-03-11T06:31:32.245Z,98992.31
2023-03-11T06:34:05.286Z,98992.31
2023-03-11T06:36:33.109Z,99001.38
2023-03-11T06:39:02.189Z,99006.00
2023-03-11T06:41:34.062Z,99012.91
2023-03-11T06:44:04.864Z,99016.28
2023-03-11T06:46:32.908Z,99028.50
2023-03-11T06:48:59.923Z,99033.84
2023-03-11T06:51:27.937Z,99038.81
2023-03-11T06:53:54.863Z,99035.22
2023-03-11T06:56:24.465Z,99048.41
2023-03-11T06:58:57.988Z,99044.66
2023-03-11T07:01:28.770Z,99047.56
2023-03-11T07:03:57.601Z,99049.44
2023-03-11T07:06:52.922Z,99049.00
2023-03-11T07:09:28.195Z,99057.69
2023-03-11T07:11:56.552Z,99063.13
2023-03-11T07:14:39.798Z,99062.28
2023-03-11T07:17:06.833Z,99062.19
2023-03-11T07:19:38.739Z,99067.25
2023-03-11T07:22:05.710Z,99062.38
2023-03-11T07:24:32.556Z,99066.13
2023-03-11T07:26:59.667Z,99070.78
2023-03-11T07:29:26.636Z,99074.34
2023-03-11T07:31:54.924Z,99072.22
2023-03-11T07:34:21.718Z,99075.72
2023-03-11T07:36:48.656Z,99088.91
2023-03-11T07:39:18.898Z,99093.25
2023-03-11T07:41:46.143Z,99093.59
2023-03-11T07:44:16.019Z,99089.38
2023-03-11T07:46:44.218Z,99091.03
2023-03-11T07:49:13.028Z,99107.53
2023-03-11T07:51:40.194Z,99105.63
2023-03-11T07:54:07.221Z,99113.59
2023-03-11T07:56:35.625Z,99118.78
2023-03-11T07:59:05.395Z,99109.09
2023-03-11T08:01:33.661Z,99118.00
2023-03-11T08:04:00.683Z,99115.53
2023-03-11T08:06:32.707Z,99118.06
2023-03-11T08:09:03.439Z,99120.16
2023-03-11T08:11:31.070Z,99113.88
2023-03-11T08:13:58.601Z,99127.56
2023-03-11T08:16:26.158Z,99131.63
2023-03-11T08:18:54.167Z,99129.34
2023-03-11T08:21:24.210Z,99130.81
2023-03-11T08:23:59.359Z,99133.59
2023-03-11T08:26:30.880Z,99135.09
2023-03-11T08:29:01.332Z,99131.38
2023-03-11T08:31:34.854Z,99137.00
2023-03-11T08:34:04.744Z,99143.34
2023-03-11T08:36:32.720Z,99148.19
2023-03-11T08:39:03.720Z,99150.53
2023-03-11T08:41:31.923Z,99149.78
2023-03-11T08:43:59.247Z,99159.47
2023-03-11T08:46:30.041Z,99155.44
2023-03-11T08:49:01.064Z,99169.44
2023-03-11T08:51:30.512Z,99162.13
2023-03-11T08:54:18.520Z,99176.84
2023-03-11T08:56:45.443Z,99168.88
2023-03-11T08:59:14.913Z,99175.22
2023-03-11T09:01:44.563Z,99166.16
2023-03-11T09:04:11.362Z,99166.25
2023-03-11T09:06:42.319Z,99165.56
2023-03-11T09:09:11.234Z,99172.09
2023-03-11T09:11:39.824Z,99175.94
2023-03-11T09:14:06.736Z,99175.81
2023-03-11T09:16:34.267Z,99173.88
2023-03-11T09:19:01.149Z,99164.13
2023-03-11T09:21:28.328Z,99170.19
2023-03-11T09:23:55.247Z,99176.25
2023-03-11T09:26:22.545Z,99180.25
2023-03-11T09:28:53.179Z,99181.19
2023-03-11T09:31:20.388Z,99181.06
2023-03-11T09:33:48.064Z,99184.28
2023-03-11T09:36:18.657Z,99180.75
2023-03-11T09:38:46.280Z,99186.88
2023-03-11T09:41:28.207Z,99181.91
2023-03-11T09:44:18.209Z,99183.75
2023-03-11T09:47:20.502Z,99185.03
2023-03-11T09:50:08.439Z,99184.03
2023-03-11T09:52:44.714Z,99178.22
2023-03-11T09:55:33.543Z,99176.44
2023-03-11T09:58:08.793Z,99177.63
2023-03-11T10:00:41.353Z,99182.81
2023-03-11T10:03:25.706Z,99170.28
2023-03-11T10:06:04.443Z,99163.47
2023-03-11T10:08:42.455Z,99166.25
2023-03-11T10:11:27.630Z,99162.84
2023-03-11T10:14:13.012Z,99171.34
2023-03-11T10:16:55.217Z,99166.22
2023-03-11T10:19:40.390Z,99166.53
2023-03-11T10:22:21.454Z,99170.34
2023-03-11T10:25:04.466Z,99162.28
2023-03-11T10:27:42.016Z,99159.06
2023-03-11T10:30:23.289Z,99169.50
2023-03-11T10:32:58.264Z,99161.19
2023-03-11T10:35:37.374Z,99156.16
2023-03-11T10:38:15.420Z,99164.22
2023-03-11T10:40:45.393Z,99162.09
2023-03-11T10:43:22.829Z,99151.91
2023-03-11T10:45:53.975Z,99159.56
2023-03-11T10:48:25.091Z,99162.97
2023-03-11T10:51:01.296Z,99172.78
2023-03-11T10:53:29.806Z,99175.91
2023-03-11T10:55:59.669Z,99167.00
2023-03-11T10:58:29.575Z,99158.94
2023-03-11T11:01:15.997Z,99164.19
2023-03-11T11:03:48.681Z,99163.81
2023-03-11T11:06:27.081Z,99167.88
2023-03-11T11:09:17.428Z,99168.31
2023-03-11T11:12:02.661Z,99174.63
2023-03-11T11:14:52.930Z,99184.91
2023-03-11T11:17:31.038Z,99182.41
2023-03-11T11:20:02.320Z,99183.84
2023-03-11T11:22:29.226Z,99180.06
2023-03-11T11:24:56.591Z,99169.13
2023-03-11T11:27:26.522Z,99174.75
2023-03-11T11:30:15.590Z,99169.16
2023-03-11T11:32:42.989Z,99169.00
2023-03-11T11:35:15.365Z,99175.00
2023-03-11T11:37:47.277Z,99169.66
2023-03-11T11:40:27.572Z,99162.72
2023-03-11T11:42:59.389Z,99167.69
2023-03-11T11:45:36.531Z,99174.56
2023-03-11T11:48:17.759Z,99180.09
2023-03-11T11:50:54.582Z,99174.84
2023-03-11T11:53:35.526Z,99167.00
2023-03-11T11:56:03.037Z,99163.22
2023-03-11T11:58:31.412Z,99155.91
2023-03-11T12:01:16.589Z,99176.03
2023-03-11T12:04:25.849Z,99169.41
2023-03-11T12:07:24.835Z,99156.00
2023-03-11T12:10:22.785Z,99158.78
2023-03-11T12:13:41.199Z,99147.00
2023-03-11T12:16:23.696Z,99136.13
2023-03-11T12:19:12.977Z,99139.56
2023-03-11T12:22:20.917Z,99145.47
2023-03-11T12:25:25.406Z,99140.66
2023-03-11T12:28:00.035Z,99138.41
2023-03-11T12:30:33.794Z,99144.06
2023-03-11T12:33:05.413Z,99144.06
2023-03-11T12:35:35.628Z,99145.94
2023-03-11T12:38:21.520Z,99150.97
2023-03-11T12:41:02.217Z,99153.03
2023-03-11T12:44:04.392Z,99153.91
2023-03-11T12:47:21.965Z,99148.69
2023-03-11T12:49:51.531Z,99149.00
2023-03-11T12:52:23.081Z,99152.88
2023-03-11T12:55:38.955Z,99150.06
2023-03-11T12:59:14.841Z,99153.38
2023-03-11T13:02:17.842Z,99150.00
2023-03-11T13:04:59.033Z,99152.09
2023-03-11T13:07:48.702Z,99144.13
2023-03-11T13:10:40.126Z,99145.38
2023-03-11T13:13:35.213Z,99145.94
2023-03-11T13:16:40.844Z,99144.88
2023-03-11T13:19:49.764Z,99141.72
2023-03-11T13:23:13.938Z,99144.94
2023-03-11T13:25:59.275Z,99137.22
2023-03-11T13:28:56.871Z,99134.41
2023-03-11T13:31:58.891Z,99134.84
2023-03-11T13:34:42.779Z,99123.44
2023-03-11T13:37:39.629Z,99124.25
2023-03-11T13:40:28.367Z,99130.09
2023-03-11T13:43:04.101Z,99136.03
2023-03-11T13:45:37.173Z,99135.59
2023-03-11T13:48:15.382Z,99138.72
2023-03-11T13:50:56.617Z,99139.91
2023-03-11T13:53:35.976Z,99146.22
2023-03-11T13:56:18.686Z,99150.25
2023-03-11T13:58:51.414Z,99150.56
2023-03-11T14:01:19.516Z,99146.63
2023-03-11T14:03:48.333Z,99152.16
2023-03-11T14:06:20.009Z,99157.69
2023-03-11T14:08:54.807Z,99170.28
2023-03-11T14:11:27.605Z,99166.75
2023-03-11T14:13:56.197Z,99165.25
2023-03-11T14:16:30.694Z,99159.84
2023-03-11T14:19:06.196Z,99163.09
2023-03-11T14:21:43.417Z,99154.34
2023-03-11T14:24:16.977Z,99149.84
2023-03-11T14:26:45.228Z,99148.97
2023-03-11T14:29:19.192Z,99148.94
2023-03-11T14:31:47.782Z,99144.31
2023-03-11T14:34:18.305Z,99135.16
2023-03-11T14:36:48.215Z,99137.13
2023-03-11T14:39:28.406Z,99134.00
2023-03-11T14:42:03.921Z,99140.44
2023-03-11T14:44:37.742Z,99136.75
2023-03-11T14:47:16.338Z,99133.50
2023-03-11T14:49:46.285Z,99139.91
2023-03-11T14:52:21.193Z,99137.81
2023-03-11T14:54:51.817Z,99137.75
2023-03-11T14:57:29.566Z,99144.16
2023-03-11T14:59:59.250Z,99152.38
2023-03-11T15:02:42.978Z,99146.00
2023-03-11T15:05:21.703Z,99152.25
2023-03-11T15:07:57.435Z,99167.56
2023-03-11T15:10:24.919Z,99162.44
2023-03-11T15:13:07.392Z,99166.41
2023-03-11T15:15:39.399Z,99164.53
2023-03-11T15:18:22.979Z,99170.94
2023-03-11T15:21:13.096Z,99162.31
2023-03-11T15:23:48.727Z,99167.25
2023-03-11T15:26:28.751Z,99172.44
2023-03-11T15:29:13.279Z,99168.09
2023-03-11T15:31:43.274Z,99173.84
2023-03-11T15:34:29.918Z,99184.22
2023-03-11T15:37:06.041Z,99184.81
2023-03-11T15:39:49.338Z,99173.84
2023-03-11T15:42:24.293Z,99174.47
2023-03-11T15:45:09.425Z,99174.28
2023-03-11T15:47:39.290Z,99176.75
2023-03-11T15:50:24.057Z,99185.88
2023-03-11T15:52:54.777Z,99177.78
2023-03-11T15:55:22.732Z,99179.25
2023-03-11T15:57:56.444Z,99180.94
2023-03-11T16:00:24.337Z,99181.34
2023-03-11T16:02:52.559Z,99175.75
2023-03-11T16:05:22.391Z,99171.00
2023-03-11T16:07:49.315Z,99174.34
2023-03-11T16:10:19.808Z,99171.63
2023-03-11T16:12:47.616Z,99169.97
2023-03-11T16:15:25.101Z,99180.53
2023-03-11T16:17:54.840Z,99180.97
2023-03-11T16:20:25.155Z,99173.09
2023-03-11T16:22:56.052Z,99189.22
2023-03-11T16:25:29.246Z,99192.72
2023-03-11T16:27:57.800Z,99184.66
2023-03-11T16:30:29.357Z,99190.44
2023-03-11T16:32:57.879Z,99188.81
2023-03-11T16:35:26.097Z,99188.56
2023-03-11T16:37:53.216Z,99199.97
2023-03-11T16:40:22.835Z,99196.63
2023-03-11T16:42:49.741Z,99200.38
2023-03-11T16:45:18.237Z,99202.41
2023-03-11T16:47:45.680Z,99191.25
2023-03-11T16:50:13.943Z,99198.28
2023-03-11T16:52:40.864Z,99210.84
2023-03-11T16:55:09.355Z,99213.53
2023-03-11T16:57:36.376Z,99224.66
2023-03-11T17:00:05.319Z,99225.91
2023-03-11T17:02:32.778Z,99238.69
2023-03-11T17:04:59.629Z,99245.91
2023-03-11T17:07:28.998Z,99237.19
2023-03-11T17:09:57.069Z,99243.75
2023-03-11T17:12:26.942Z,99250.34
2023-03-11T17:15:00.905Z,99239.75
2023-03-11T17:17:34.942Z,99253.38
2023-03-11T17:20:03.395Z,99265.72
2023-03-11T17:22:33.996Z,99260.91
2023-03-11T17:25:03.396Z,99268.75
2023-03-11T17:27:42.299Z,99272.88
2023-03-11T17:30:36.828Z,99273.66
2023-03-11T17:33:05.329Z,99274.25
2023-03-11T17:35:32.495Z,99284.06
2023-03-11T17:38:00.805Z,99281.16
2023-03-11T17:40:28.546Z,99283.97
2023-03-11T17:42:57.860Z,99281.69
2023-03-11T17:45:26.831Z,99289.03
2023-03-11T17:47:53.620Z,99291.00
2023-03-11T17:50:20.501Z,99296.31
2023-03-11T17:52:47.566Z,99296.22
2023-03-11T17:55:16.085Z,99303.84
2023-03-11T17:57:45.723Z,99307.72
2023-03-11T18:00:14.273Z,99312.00
2023-03-11T18:02:41.218Z,99318.56
2023-03-11T18:05:08.852Z,99320.16
2023-03-11T18:07:37.105Z,99316.75
2023-03-11T18:10:05.240Z,99324.19
2023-03-11T18:12:33.899Z,99320.38
2023-03-11T18:15:02.981Z,99324.47
2023-03-11T18:17:30.204Z,99331.41
2023-03-11T18:19:58.994Z,99332.72
2023-03-11T18:22:26.845Z,99332.44
2023-03-11T18:24:57.159Z,99337.94
2023-03-11T18:27:24.572Z,99338.50
2023-03-11T18:29:52.777Z,99342.34
2023-03-11T18:32:20.470Z,99340.88
2023-03-11T18:34:50.108Z,99346.41
2023-03-11T18:37:16.951Z,99350.50
2023-03-11T18:39:45.402Z,99345.03
2023-03-11T18:42:12.574Z,99346.44
2023-03-11T18:44:40.139Z,99352.88
2023-03-11T18:47:08.728Z,99357.22
2023-03-11T18:49:35.774Z,99361.34
2023-03-11T18:52:02.837Z,99365.44
2023-03-11T18:54:29.683Z,99356.31
2023-03-11T18:56:56.641Z,99368.47
2023-03-11T18:59:23.591Z,99373.72
2023-03-11T19:01:50.887Z,99370.28
2023-03-11T19:04:19.150Z,99370.88
2023-03-11T19:06:45.987Z,99378.78
2023-03-11T19:09:12.844Z,99376.50
2023-03-11T19:11:39.811Z,99369.88
2023-03-11T19:14:06.591Z,99381.03
2023-03-11T19:16:34.277Z,99378.84
2023-03-11T19:19:01.237Z,99384.28
2023-03-11T19:21:29.509Z,99387.66
2023-03-11T19:23:57.765Z,99388.47
2023-03-11T19:26:41.483Z,99398.63
2023-03-11T19:29:11.463Z,99395.25
2023-03-11T19:31:38.373Z,99396.25
2023-03-11T19:34:05.432Z,99394.56
2023-03-11T19:36:33.772Z,99410.66
2023-03-11T19:39:00.844Z,99407.66
2023-03-11T19:41:27.758Z,99410.25
2023-03-11T19:43:54.722Z,99413.75
2023-03-11T19:46:23.394Z,99408.06
2023-03-11T19:48:50.461Z,99409.28
2023-03-11T19:51:17.505Z,99406.19
2023-03-11T19:53:45.986Z,99418.50
2023-03-11T19:56:13.484Z,99425.00
2023-03-11T19:58:42.235Z,99423.47
2023-03-11T20:01:16.774Z,99426.06
2023-03-11T20:03:43.597Z,99424.09
2023-03-11T20:06:11.248Z,99436.16
2023-03-11T20:08:38.421Z,99429.84
2023-03-11T20:11:06.626Z,99429.50
2023-03-11T20:13:36.044Z,99436.34
2023-03-11T20:16:08.186Z,99437.66
2023-03-11T20:18:35.629Z,99446.41
2023-03-11T20:21:06.774Z,99442.25
2023-03-11T20:23:34.619Z,99443.38
2023-03-11T20:26:08.130Z,99438.38
2023-03-11T20:28:35.433Z,99446.75
2023-03-11T20:31:10.166Z,99451.94
2023-03-11T20:33:38.035Z,99446.75
2023-03-11T20:36:07.464Z,99451.09
2023-03-11T20:38:34.525Z,99452.41
2023-03-11T20:41:01.428Z,99454.13
2023-03-11T20:43:29.718Z,99459.78
2023-03-11T20:45:58.317Z,99460.00
2023-03-11T20:48:27.882Z,99466.66
2023-03-11T20:50:55.141Z,99462.66
2023-03-11T20:53:21.978Z,99468.63
2023-03-11T20:55:48.972Z,99469.47
2023-03-11T20:58:15.812Z,99477.47
2023-03-11T21:00:45.294Z,99485.66
2023-03-11T21:03:12.602Z,99476.66
2023-03-11T21:05:40.142Z,99474.00
2023-03-11T21:08:07.469Z,99478.34
2023-03-11T21:10:34.703Z,99478.84
2023-03-11T21:13:01.670Z,99475.69
2023-03-11T21:15:28.613Z,99481.66
2023-03-11T21:17:56.841Z,99474.50
2023-03-11T21:20:24.041Z,99477.84
2023-03-11T21:22:50.918Z,99476.16
2023-03-11T21:25:18.050Z,99473.19
2023-03-11T21:27:45.336Z,99479.00
2023-03-11T21:30:14.366Z,99490.66
2023-03-11T21:32:41.648Z,99483.81
2023-03-11T21:35:10.262Z,99483.50
2023-03-11T21:37:37.266Z,99487.69
2023-03-11T21:40:05.661Z,99488.00
2023-03-11T21:42:32.416Z,99489.13
2023-03-11T21:44:59.475Z,99482.69
2023-03-11T21:47:28.926Z,99482.09
2023-03-11T21:49:56.189Z,99483.66
2023-03-11T21:52:24.468Z,99487.03
2023-03-11T21:54:51.564Z,99489.41
2023-03-11T21:57:18.412Z,99486.44
2023-03-11T21:59:45.497Z,99490.47
2023-03-11T22:02:17.057Z,99483.28
2023-03-11T22:04:44.564Z,99484.09
2023-03-11T22:07:11.530Z,99483.59
2023-03-11T22:09:40.738Z,99490.25
2023-03-11T22:12:08.279Z,99490.09
2023-03-11T22:14:35.206Z,99498.59
2023-03-11T22:17:02.155Z,99489.94
2023-03-11T22:19:29.274Z,99491.44
2023-03-11T22:21:56.355Z,99492.63
2023-03-11T22:24:23.245Z,99494.28
2023-03-11T22:26:52.012Z,99496.41
2023-03-11T22:29:19.042Z,99490.38
2023-03-11T22:31:46.053Z,99496.53
2023-03-11T22:34:12.965Z,99489.88
2023-03-11T22:36:39.826Z,99496.19
2023-03-11T22:39:06.700Z,99494.75
2023-03-11T22:41:34.346Z,99485.59
2023-03-11T22:44:02.958Z,99481.06
2023-03-11T22:46:29.966Z,99479.91
2023-03-11T22:48:56.891Z,99481.41
2023-03-11T22:51:23.761Z,99486.25
2023-03-11T22:53:50.860Z,99490.41
2023-03-11T22:56:19.025Z,99486.59
2023-03-11T22:58:46.788Z,99491.06
2023-03-11T23:01:16.975Z,99497.56
2023-03-11T23:03:45.019Z,99493.00
2023-03-11T23:06:18.181Z,99503.13
2023-03-11T23:08:46.464Z,99500.47
2023-03-11T23:11:17.449Z,99512.31
2023-03-11T23:13:45.311Z,99500.84
2023-03-11T23:16:16.949Z,99509.50
2023-03-11T23:18:53.636Z,99507.16
2023-03-11T23:21:23.439Z,99503.97
2023-03-11T23:23:51.715Z,99503.13
2023-03-11T23:26:49.130Z,99503.81
2023-03-11T23:29:18.905Z,99501.31
2023-03-11T23:32:25.209Z,99507.81
2023-03-11T23:35:53.019Z,99511.28
2023-03-11T23:38:56.038Z,99503.56
2023-03-11T23:41:22.986Z,99515.16
2023-03-11T23:43:50.399Z,99502.94
2023-03-11T23:46:17.262Z,99512.00
2023-03-11T23:48:45.575Z,99502.69
2023-03-11T23:51:17.805Z,99504.03
2023-03-11T23:54:07.767Z,99507.53
2023-03-11T23:57:54.659Z,99503.19
